Time;durP1;ratioP1;P1;durP2;ratioP2;P2;SDS_P1;SDS_P2;PMS_P1;PMS_P2;Temp;Humidity;BMP_temperature;BMP_pressure;BME280_temperature;BME280_humidity;BME280_pressure;Samples;Min_cycle;Max_cycle;Signal;HPM_P1;HPM_P2
2021/08/22 00:02:05;;;;;;;0.00;0.00;;;17.00;99.90;;;;;;5045850;28;20225;-80
2021/08/22 00:04:55;;;;;;;0.00;0.00;;;17.00;99.90;;;;;;5052317;28;20044;-81
2021/08/22 00:07:43;;;;;;;0.10;0.10;;;17.00;99.90;;;;;;5052050;28;20040;-85
2021/08/22 00:10:30;;;;;;;0.00;0.00;;;17.00;99.90;;;;;;5058742;28;20135;-87
2021/08/22 00:13:17;;;;;;;0.00;0.00;;;17.00;99.90;;;;;;5046309;28;20044;-85
2021/08/22 00:16:05;;;;;;;0.00;0.00;;;16.90;99.90;;;;;;5053319;28;20476;-85
2021/08/22 00:18:52;;;;;;;0.00;0.00;;;16.90;99.90;;;;;;5054661;28;20045;-82
2021/08/22 00:21:40;;;;;;;0.00;0.00;;;16.90;99.90;;;;;;5054579;28;20056;-82
2021/08/22 00:24:27;;;;;;;0.00;0.00;;;16.90;99.90;;;;;;5051884;28;20048;-84
2021/08/22 00:27:15;;;;;;;0.00;0.00;;;16.90;99.90;;;;;;5048252;28;20041;-85
2021/08/22 00:30:02;;;;;;;0.00;0.00;;;16.80;99.90;;;;;;5056343;28;20070;-81
2021/08/22 00:32:49;;;;;;;0.00;0.00;;;16.80;99.90;;;;;;5051153;28;20470;-84
2021/08/22 00:35:37;;;;;;;0.00;0.00;;;16.80;99.90;;;;;;5053608;28;20044;-85
2021/08/22 00:38:26;;;;;;;0.00;0.00;;;16.80;99.90;;;;;;5053931;28;20123;-85
2021/08/22 00:41:13;;;;;;;0.00;0.00;;;16.80;99.90;;;;;;5070401;28;20099;-86
2021/08/22 00:44:00;;;;;;;0.10;0.10;;;16.80;99.90;;;;;;5058266;28;20044;-83
2021/08/22 00:46:49;;;;;;;0.00;0.00;;;16.70;99.90;;;;;;5054094;28;20492;-84
2021/08/22 00:49:36;;;;;;;0.00;0.00;;;16.70;99.90;;;;;;5068643;28;20053;-83
2021/08/22 00:52:26;;;;;;;0.00;0.00;;;16.60;99.90;;;;;;5056210;28;20045;-82
2021/08/22 00:55:14;;;;;;;0.00;0.00;;;16.60;99.90;;;;;;5073844;28;20080;-85
2021/08/22 00:58:02;;;;;;;0.05;0.00;;;16.60;99.90;;;;;;5061857;28;20044;-85
2021/08/22 01:00:49;;;;;;;0.00;0.00;;;16.70;99.90;;;;;;5057987;28;20567;-85
2021/08/22 01:03:40;;;;;;;0.00;0.00;;;16.70;99.90;;;;;;5047301;28;20045;-81
2021/08/22 01:06:36;;;;;;;0.00;0.00;;;16.60;99.90;;;;;;5059318;28;20122;-85
2021/08/22 01:09:29;;;;;;;0.00;0.00;;;16.60;99.90;;;;;;5057045;28;20124;-86
2021/08/22 01:12:23;;;;;;;0.00;0.00;;;16.60;99.90;;;;;;5053548;28;20115;-85
2021/08/22 01:15:13;;;;;;;0.00;0.00;;;16.80;99.90;;;;;;5069898;28;20045;-85
2021/08/22 01:18:01;;;;;;;0.00;0.00;;;16.80;99.90;;;;;;5053824;28;20198;-84
2021/08/22 01:21:02;;;;;;;0.00;0.00;;;16.90;99.90;;;;;;5059518;28;20049;-85
2021/08/22 01:23:55;;;;;;;0.00;0.00;;;16.70;99.90;;;;;;5050992;28;20044;-86
2021/08/22 01:26:42;;;;;;;0.00;0.00;;;16.70;99.90;;;;;;5054046;28;20127;-83
2021/08/22 01:29:37;;;;;;;0.00;0.00;;;16.70;99.90;;;;;;5064582;28;20045;-85
2021/08/22 01:32:33;;;;;;;0.00;0.00;;;16.80;99.90;;;;;;5061368;28;20040;-85
2021/08/22 01:35:22;;;;;;;0.00;0.00;;;16.80;99.90;;;;;;5049978;28;20468;-84
2021/08/22 01:38:10;;;;;;;0.00;0.00;;;16.80;99.90;;;;;;5057082;28;20082;-86
2021/08/22 01:40:58;;;;;;;0.00;0.00;;;16.80;99.90;;;;;;5069026;28;20116;-82
2021/08/22 01:43:46;;;;;;;0.00;0.00;;;16.80;99.90;;;;;;5037221;28;20130;-85
2021/08/22 01:46:37;;;;;;;0.00;0.00;;;16.80;99.90;;;;;;5069915;28;20043;-85
2021/08/22 01:49:26;;;;;;;0.00;0.00;;;16.80;99.90;;;;;;5056469;28;20045;-85
2021/08/22 01:52:15;;;;;;;0.00;0.00;;;16.90;99.90;;;;;;5055321;28;20071;-85
2021/08/22 01:55:03;;;;;;;0.00;0.00;;;16.90;99.90;;;;;;5049248;28;20404;-82
2021/08/22 01:57:50;;;;;;;0.00;0.00;;;17.00;99.90;;;;;;5063912;28;20120;-83
2021/08/22 02:00:38;;;;;;;0.00;0.00;;;17.10;99.90;;;;;;5054853;28;20489;-83
2021/08/22 02:03:32;;;;;;;0.00;0.00;;;17.10;99.90;;;;;;5050459;28;20116;-81
2021/08/22 02:06:28;;;;;;;0.00;0.00;;;17.10;99.90;;;;;;5055927;28;20037;-85
2021/08/22 02:09:19;;;;;;;0.00;0.00;;;17.30;99.90;;;;;;5060152;28;20033;-85
2021/08/22 02:12:13;;;;;;;0.00;0.00;;;17.40;99.90;;;;;;5063270;28;20141;-85
2021/08/22 02:15:03;;;;;;;0.00;0.00;;;17.40;99.90;;;;;;5068561;28;20455;-83
2021/08/22 02:17:59;;;;;;;0.00;0.00;;;17.40;99.90;;;;;;5058190;28;20043;-83
2021/08/22 02:20:47;;;;;;;0.00;0.00;;;17.30;99.90;;;;;;5054079;28;20107;-85
2021/08/22 02:23:36;;;;;;;0.00;0.00;;;17.30;99.90;;;;;;5048750;28;20094;-85
2021/08/22 02:26:24;;;;;;;0.00;0.00;;;17.30;99.90;;;;;;5055717;28;20040;-82
2021/08/22 02:29:11;;;;;;;0.00;0.00;;;17.30;99.90;;;;;;5050309;28;20120;-84
2021/08/22 02:31:58;;;;;;;0.00;0.00;;;17.40;99.90;;;;;;5059672;28;20119;-84
2021/08/22 02:34:46;;;;;;;0.00;0.00;;;17.50;99.90;;;;;;5057477;28;20048;-85
2021/08/22 02:37:34;;;;;;;0.00;0.00;;;17.40;99.90;;;;;;5072657;28;20040;-81
2021/08/22 02:40:22;;;;;;;0.00;0.00;;;17.40;99.90;;;;;;5051315;28;20042;-84
2021/08/22 02:43:10;;;;;;;0.00;0.00;;;17.30;99.90;;;;;;5056496;28;20131;-85
2021/08/22 02:45:57;;;;;;;0.00;0.00;;;17.20;99.90;;;;;;5057555;28;20044;-84
2021/08/22 02:48:44;;;;;;;0.00;0.00;;;17.30;99.90;;;;;;5054032;28;20036;-85
2021/08/22 02:51:31;;;;;;;0.00;0.00;;;17.20;99.90;;;;;;5060585;28;20087;-79
2021/08/22 02:54:18;;;;;;;0.00;0.00;;;17.30;99.90;;;;;;5050007;28;20108;-81
2021/08/22 02:57:06;;;;;;;0.00;0.00;;;17.20;99.90;;;;;;5050329;28;20411;-81
2021/08/22 02:59:54;;;;;;;0.00;0.00;;;17.20;99.90;;;;;;5065688;28;20068;-84
2021/08/22 03:02:41;;;;;;;0.00;0.00;;;17.20;99.90;;;;;;5055613;28;20420;-85
2021/08/22 03:05:28;;;;;;;0.00;0.00;;;17.30;99.90;;;;;;5057242;28;20519;-84
2021/08/22 03:08:16;;;;;;;0.00;0.00;;;17.30;99.90;;;;;;5058356;28;20385;-85
2021/08/22 03:11:04;;;;;;;0.00;0.00;;;17.20;99.90;;;;;;5058728;28;20565;-84
2021/08/22 03:13:52;;;;;;;0.00;0.00;;;17.20;99.90;;;;;;5058220;28;20078;-85
2021/08/22 03:16:39;;;;;;;0.00;0.00;;;17.30;99.90;;;;;;5051358;28;20606;-84
2021/08/22 03:19:27;;;;;;;0.00;0.00;;;17.30;99.90;;;;;;5058654;28;20072;-84
2021/08/22 03:22:14;;;;;;;0.00;0.00;;;17.30;99.90;;;;;;5063299;28;20452;-83
2021/08/22 03:25:02;;;;;;;0.00;0.00;;;17.40;99.90;;;;;;5052184;28;20124;-85
2021/08/22 03:27:49;;;;;;;0.00;0.00;;;17.30;99.90;;;;;;5052641;28;20101;-87
2021/08/22 03:30:38;;;;;;;0.00;0.00;;;17.50;99.90;;;;;;5053442;28;20087;-83
2021/08/22 03:33:25;;;;;;;0.00;0.00;;;17.40;99.90;;;;;;5061623;28;20068;-82
2021/08/22 03:36:12;;;;;;;0.00;0.00;;;17.40;99.90;;;;;;5051917;28;20040;-85
2021/08/22 03:38:59;;;;;;;0.00;0.00;;;17.40;99.90;;;;;;5045653;28;20120;-85
2021/08/22 03:41:47;;;;;;;0.00;0.00;;;17.40;99.90;;;;;;5056962;28;20448;-84
2021/08/22 03:44:34;;;;;;;0.00;0.00;;;17.50;99.90;;;;;;5056454;28;20045;-83
2021/08/22 03:47:22;;;;;;;0.00;0.00;;;17.50;99.90;;;;;;5055265;28;20037;-85
2021/08/22 03:50:10;;;;;;;0.00;0.00;;;17.60;99.90;;;;;;5052083;28;20040;-85
2021/08/22 03:52:57;;;;;;;0.00;0.00;;;17.60;99.90;;;;;;5049357;28;20119;-84
2021/08/22 03:55:45;;;;;;;0.00;0.00;;;17.60;99.90;;;;;;5050686;28;20071;-85
2021/08/22 03:58:32;;;;;;;0.00;0.00;;;17.60;99.90;;;;;;5067868;28;20045;-85
2021/08/22 04:01:19;;;;;;;0.00;0.00;;;17.60;99.90;;;;;;5054121;28;20086;-82
2021/08/22 04:04:08;;;;;;;0.00;0.00;;;17.60;99.90;;;;;;5054459;28;20054;-85
2021/08/22 04:06:55;;;;;;;0.00;0.00;;;17.60;99.90;;;;;;5061725;28;20045;-82
2021/08/22 04:09:42;;;;;;;0.00;0.00;;;17.60;99.90;;;;;;5056800;28;20198;-86
2021/08/22 04:12:29;;;;;;;0.00;0.00;;;17.60;99.90;;;;;;5055518;28;20564;-84
2021/08/22 04:15:16;;;;;;;0.00;0.00;;;17.60;99.90;;;;;;5061269;28;20068;-82
2021/08/22 04:18:04;;;;;;;0.00;0.00;;;17.70;99.90;;;;;;5058336;28;20045;-83
2021/08/22 04:20:52;;;;;;;0.00;0.00;;;17.60;99.90;;;;;;5056075;28;20443;-85
2021/08/22 04:23:39;;;;;;;0.00;0.00;;;17.70;99.90;;;;;;5055661;28;20048;-85
2021/08/22 04:26:27;;;;;;;0.00;0.00;;;17.80;99.90;;;;;;5041977;28;20065;-85
2021/08/22 04:29:14;;;;;;;0.00;0.00;;;17.80;99.90;;;;;;5050193;28;20119;-86
2021/08/22 04:32:01;;;;;;;0.00;0.00;;;17.80;99.90;;;;;;5051815;28;20052;-85
2021/08/22 04:34:48;;;;;;;0.00;0.00;;;17.90;99.90;;;;;;5043113;28;20072;-82
2021/08/22 04:37:37;;;;;;;0.00;0.00;;;17.90;99.90;;;;;;5051772;28;20524;-84
2021/08/22 04:40:24;;;;;;;0.00;0.00;;;18.00;99.90;;;;;;5056984;28;20130;-86
2021/08/22 04:43:11;;;;;;;0.00;0.00;;;17.90;99.90;;;;;;5041230;28;20056;-86
2021/08/22 04:45:58;;;;;;;0.00;0.00;;;17.90;99.90;;;;;;5049170;28;20522;-86
2021/08/22 04:48:46;;;;;;;0.00;0.00;;;17.90;99.90;;;;;;5044087;28;20044;-85
2021/08/22 04:51:33;;;;;;;0.00;0.00;;;17.90;99.90;;;;;;5053538;28;20072;-85
2021/08/22 04:54:22;;;;;;;0.00;0.00;;;17.70;99.90;;;;;;5065040;28;20044;-85
2021/08/22 04:57:09;;;;;;;0.00;0.00;;;17.80;99.90;;;;;;5050711;28;20041;-85
2021/08/22 04:59:56;;;;;;;0.00;0.00;;;17.90;99.90;;;;;;5062706;28;20119;-83
2021/08/22 05:02:43;;;;;;;0.00;0.00;;;17.90;99.90;;;;;;5051206;28;20048;-86
2021/08/22 05:05:31;;;;;;;0.00;0.00;;;18.00;99.90;;;;;;5054790;28;20040;-84
2021/08/22 05:08:18;;;;;;;0.00;0.00;;;18.00;99.90;;;;;;5050516;28;20127;-87
2021/08/22 05:11:07;;;;;;;0.00;0.00;;;18.00;99.90;;;;;;5051283;28;20075;-82
2021/08/22 05:13:55;;;;;;;0.00;0.00;;;18.00;99.90;;;;;;5048168;28;20055;-85
2021/08/22 05:16:42;;;;;;;0.00;0.00;;;17.90;99.90;;;;;;5047001;28;20059;-85
2021/08/22 05:19:29;;;;;;;0.00;0.00;;;17.90;99.90;;;;;;5054517;28;20413;-84
2021/08/22 05:22:17;;;;;;;0.00;0.00;;;17.90;99.90;;;;;;5054376;28;20504;-86
2021/08/22 05:25:05;;;;;;;0.00;0.00;;;17.90;99.90;;;;;;5053268;28;20487;-85
2021/08/22 05:27:53;;;;;;;0.00;0.00;;;18.00;99.90;;;;;;5047398;28;20055;-85
2021/08/22 05:30:40;;;;;;;0.00;0.00;;;18.00;99.90;;;;;;5056924;28;20096;-85
2021/08/22 05:33:27;;;;;;;0.00;0.00;;;17.90;99.90;;;;;;5046373;28;20067;-82
2021/08/22 05:36:19;;;;;;;0.00;0.00;;;17.80;99.90;;;;;;5065848;28;20525;-85
2021/08/22 05:39:07;;;;;;;0.00;0.00;;;17.90;99.90;;;;;;5052204;28;20119;-85
2021/08/22 05:41:54;;;;;;;0.00;0.00;;;17.90;99.90;;;;;;5051163;28;20560;-85
2021/08/22 05:44:42;;;;;;;0.00;0.00;;;17.90;99.90;;;;;;5052750;28;20620;-84
2021/08/22 05:47:29;;;;;;;0.00;0.00;;;17.90;99.90;;;;;;5052629;28;20123;-85
2021/08/22 05:50:16;;;;;;;0.00;0.00;;;17.90;99.90;;;;;;5050021;28;20072;-85
2021/08/22 05:53:04;;;;;;;0.00;0.00;;;17.90;99.90;;;;;;5047021;28;20036;-78
2021/08/22 05:55:51;;;;;;;0.00;0.00;;;17.90;99.90;;;;;;5065656;28;20048;-84
2021/08/22 05:58:38;;;;;;;0.00;0.00;;;18.00;99.90;;;;;;5053749;28;20153;-85
2021/08/22 06:01:26;;;;;;;0.00;0.00;;;18.00;99.90;;;;;;5066593;28;20090;-83
2021/08/22 06:04:14;;;;;;;0.00;0.00;;;18.00;99.90;;;;;;5067837;28;20518;-84
2021/08/22 06:07:01;;;;;;;0.00;0.00;;;18.00;99.90;;;;;;5056049;28;20051;-84
2021/08/22 06:09:48;;;;;;;0.00;0.00;;;18.00;99.90;;;;;;5048982;28;20049;-85
2021/08/22 06:12:35;;;;;;;0.10;0.10;;;18.00;99.90;;;;;;5049996;28;20089;-85
2021/08/22 06:15:23;;;;;;;0.00;0.00;;;18.00;99.90;;;;;;5051759;28;20084;-81
2021/08/22 06:18:11;;;;;;;0.00;0.00;;;19.20;99.90;;;;;;5053281;28;20558;-85
2021/08/22 06:20:58;;;;;;;0.00;0.00;;;18.10;99.90;;;;;;5066957;28;20512;-84
2021/08/22 06:23:46;;;;;;;0.00;0.00;;;18.20;99.90;;;;;;5055308;28;20093;-80
2021/08/22 06:26:33;;;;;;;0.00;0.00;;;18.20;99.90;;;;;;5048222;28;20103;-85
2021/08/22 06:29:20;;;;;;;0.00;0.00;;;18.20;99.90;;;;;;5051110;28;20167;-86
2021/08/22 06:32:07;;;;;;;0.00;0.00;;;18.30;99.90;;;;;;5067309;28;20048;-85
2021/08/22 06:34:56;;;;;;;0.00;0.00;;;18.30;99.90;;;;;;5055166;28;20556;-85
2021/08/22 06:37:43;;;;;;;0.00;0.00;;;18.40;99.90;;;;;;5054591;28;20181;-84
2021/08/22 06:40:31;;;;;;;0.00;0.00;;;18.40;99.90;;;;;;5053378;28;20394;-85
2021/08/22 06:43:18;;;;;;;0.00;0.00;;;18.40;99.90;;;;;;5054418;28;20037;-82
2021/08/22 06:46:05;;;;;;;0.00;0.00;;;18.30;99.90;;;;;;5050772;28;20041;-84
2021/08/22 06:48:52;;;;;;;0.00;0.00;;;18.40;99.90;;;;;;5054294;28;20060;-84
2021/08/22 06:51:41;;;;;;;0.00;0.00;;;18.40;99.90;;;;;;5069500;28;20158;-85
2021/08/22 06:54:28;;;;;;;0.00;0.00;;;18.40;99.90;;;;;;5047610;28;20103;-86
2021/08/22 06:57:16;;;;;;;0.10;0.10;;;18.40;99.90;;;;;;5052698;28;20551;-84
2021/08/22 07:00:05;;;;;;;0.00;0.00;;;18.50;99.90;;;;;;5058197;28;20529;-81
2021/08/22 07:02:52;;;;;;;0.00;0.00;;;18.50;99.90;;;;;;5055940;28;20040;-83
2021/08/22 07:05:40;;;;;;;0.00;0.00;;;18.50;99.90;;;;;;5051658;28;20095;-82
2021/08/22 07:08:28;;;;;;;0.00;0.00;;;18.60;99.90;;;;;;5049161;28;20538;-85
2021/08/22 07:11:16;;;;;;;0.00;0.00;;;18.60;99.90;;;;;;5052285;28;20124;-85
2021/08/22 07:14:03;;;;;;;0.00;0.00;;;18.70;99.90;;;;;;5053320;28;20048;-84
2021/08/22 07:16:51;;;;;;;0.00;0.00;;;18.80;99.90;;;;;;5062672;28;20508;-82
2021/08/22 07:19:38;;;;;;;0.00;0.00;;;18.90;99.90;;;;;;5051723;28;20120;-82
2021/08/22 07:22:26;;;;;;;0.00;0.00;;;19.10;99.90;;;;;;5049256;28;20048;-84
2021/08/22 07:25:14;;;;;;;0.00;0.00;;;19.20;99.90;;;;;;5048109;28;20055;-85
2021/08/22 07:28:01;;;;;;;0.00;0.00;;;19.30;99.90;;;;;;5050402;28;20135;-85
2021/08/22 07:30:48;;;;;;;0.00;0.00;;;19.50;99.90;;;;;;5052483;28;20079;-85
2021/08/22 07:33:36;;;;;;;0.00;0.00;;;19.70;99.90;;;;;;5050026;28;20565;-85
2021/08/22 07:36:23;;;;;;;0.00;0.00;;;19.70;99.90;;;;;;5062360;28;20045;-81
2021/08/22 07:39:11;;;;;;;0.00;0.00;;;19.80;99.90;;;;;;5048373;28;20076;-85
2021/08/22 07:42:00;;;;;;;0.00;0.00;;;19.90;99.90;;;;;;5048252;28;20044;-83
2021/08/22 07:44:47;;;;;;;0.00;0.00;;;20.00;99.90;;;;;;5049493;28;20044;-85
2021/08/22 07:47:34;;;;;;;0.00;0.00;;;20.10;99.90;;;;;;5055396;28;20743;-85
2021/08/22 07:50:22;;;;;;;0.00;0.00;;;20.30;99.90;;;;;;5049749;28;20099;-84
2021/08/22 07:53:09;;;;;;;0.00;0.00;;;20.30;99.90;;;;;;5052876;28;20582;-85
2021/08/22 07:55:56;;;;;;;0.00;0.00;;;20.50;99.90;;;;;;5050187;28;20045;-83
2021/08/22 07:58:44;;;;;;;0.00;0.00;;;20.60;99.90;;;;;;5056419;28;20226;-85
2021/08/22 08:01:31;;;;;;;0.00;0.00;;;20.60;99.90;;;;;;5052594;28;20052;-85
2021/08/22 08:04:19;;;;;;;0.00;0.00;;;20.70;99.90;;;;;;5054924;28;20056;-85
2021/08/22 08:07:06;;;;;;;0.00;0.00;;;20.80;99.90;;;;;;5057490;28;20142;-84
2021/08/22 08:09:53;;;;;;;0.00;0.00;;;20.90;99.90;;;;;;5047258;28;20045;-85
2021/08/22 08:12:40;;;;;;;0.00;0.00;;;21.10;99.90;;;;;;5047084;28;20052;-84
2021/08/22 08:15:29;;;;;;;0.00;0.00;;;21.30;99.90;;;;;;5054100;28;20052;-86
2021/08/22 08:18:16;;;;;;;0.00;0.00;;;21.30;99.90;;;;;;5054461;28;20048;-79
2021/08/22 08:21:04;;;;;;;0.00;0.00;;;21.30;99.90;;;;;;5052365;28;20669;-85
2021/08/22 08:23:51;;;;;;;0.00;0.00;;;21.40;99.90;;;;;;5067942;28;20492;-84
2021/08/22 08:26:38;;;;;;;0.00;0.00;;;21.50;99.90;;;;;;5045777;28;20048;-85
2021/08/22 08:29:25;;;;;;;0.00;0.00;;;21.60;99.90;;;;;;5054424;28;20056;-84
2021/08/22 08:32:13;;;;;;;0.00;0.00;;;21.70;99.90;;;;;;5051433;28;20601;-85
2021/08/22 08:35:01;;;;;;;0.00;0.00;;;21.70;99.90;;;;;;5051475;28;20123;-85
2021/08/22 08:37:48;;;;;;;0.00;0.00;;;21.60;99.90;;;;;;5054862;28;20047;-85
2021/08/22 08:40:35;;;;;;;0.00;0.00;;;21.60;99.90;;;;;;5064204;28;20480;-85
2021/08/22 08:43:23;;;;;;;0.00;0.00;;;21.50;99.90;;;;;;5050767;28;20047;-81
2021/08/22 08:46:10;;;;;;;0.00;0.00;;;21.70;99.90;;;;;;5062701;28;20040;-81
2021/08/22 08:49:00;;;;;;;0.00;0.00;;;21.70;99.90;;;;;;5058872;28;20040;-85
2021/08/22 08:51:53;;;;;;;0.00;0.00;;;21.90;99.90;;;;;;5050572;28;20085;-84
2021/08/22 08:54:41;;;;;;;0.00;0.00;;;21.90;99.90;;;;;;5052592;28;20497;-85
2021/08/22 08:57:28;;;;;;;0.00;0.00;;;22.00;99.90;;;;;;5047901;28;20119;-85
2021/08/22 09:00:15;;;;;;;0.00;0.00;;;22.00;99.90;;;;;;5031676;28;20575;-86
2021/08/22 09:03:02;;;;;;;0.00;0.00;;;22.10;99.90;;;;;;5054229;28;20496;-83
2021/08/22 09:06:16;;;;;;;0.00;0.00;;;22.00;99.90;;;;;;5063355;28;20051;-85
2021/08/22 09:09:51;;;;;;;0.00;0.00;;;22.30;99.90;;;;;;5051265;28;20048;-79
2021/08/22 09:13:14;;;;;;;0.00;0.00;;;22.30;99.90;;;;;;5040445;28;20393;-85
2021/08/22 09:16:33;;;;;;;0.00;0.00;;;22.20;99.90;;;;;;5047542;28;20044;-85
2021/08/22 09:20:12;;;;;;;0.00;0.00;;;22.20;99.90;;;;;;5045213;28;20048;-84
2021/08/22 09:23:50;;;;;;;0.00;0.00;;;22.00;99.90;;;;;;5043446;28;20044;-86
2021/08/22 09:27:10;;;;;;;0.00;0.00;;;21.90;99.90;;;;;;5005079;28;20204;-85
2021/08/22 09:30:30;;;;;;;0.00;0.00;;;22.00;99.90;;;;;;5009223;28;20124;-83
2021/08/22 09:33:57;;;;;;;0.00;0.00;;;21.80;99.90;;;;;;5046196;28;20615;-84
2021/08/22 09:37:23;;;;;;;0.00;0.00;;;22.00;99.90;;;;;;5030186;28;20496;-85
2021/08/22 09:40:57;;;;;;;0.00;0.00;;;22.10;99.90;;;;;;5057744;28;20068;-85
2021/08/22 09:44:29;;;;;;;0.00;0.00;;;22.10;99.90;;;;;;5046163;28;20067;-85
2021/08/22 09:47:54;;;;;;;0.00;0.00;;;22.30;99.90;;;;;;5041452;28;20041;-82
2021/08/22 09:51:34;;;;;;;0.00;0.00;;;22.30;99.90;;;;;;5046464;28;20131;-85
2021/08/22 09:54:57;;;;;;;0.00;0.00;;;22.50;99.90;;;;;;5048761;28;20044;-85
2021/08/22 09:58:22;;;;;;;0.00;0.00;;;22.30;99.90;;;;;;5033110;28;20048;-83
2021/08/22 10:01:36;;;;;;;0.00;0.00;;;22.40;99.90;;;;;;5036353;28;20044;-85
2021/08/22 10:05:01;;;;;;;0.00;0.00;;;22.50;99.90;;;;;;5048107;28;21481;-85
2021/08/22 10:08:03;;;;;;;0.00;0.00;;;22.80;99.90;;;;;;4991874;28;20417;-84
2021/08/22 10:10:52;;;;;;;0.00;0.00;;;23.10;99.90;;;;;;5039604;28;20178;-85
2021/08/22 10:13:39;;;;;;;0.00;0.00;;;23.20;99.90;;;;;;5044705;28;20412;-83
2021/08/22 10:16:29;;;;;;;0.00;0.00;;;23.00;99.90;;;;;;5052856;28;20056;-85
2021/08/22 10:19:21;;;;;;;0.00;0.00;;;22.90;99.90;;;;;;5054892;28;20044;-82
2021/08/22 10:22:11;;;;;;;0.00;0.00;;;23.00;99.90;;;;;;5056067;28;20570;-83
2021/08/22 10:25:01;;;;;;;0.00;0.00;;;22.80;99.90;;;;;;5055927;28;20127;-86
2021/08/22 10:27:59;;;;;;;0.00;0.00;;;22.90;99.90;;;;;;5049705;28;20508;-81
2021/08/22 10:30:46;;;;;;;0.00;0.00;;;23.00;99.90;;;;;;5041844;28;20048;-81
2021/08/22 10:33:34;;;;;;;0.00;0.00;;;22.80;99.90;;;;;;5034948;28;20055;-81
2021/08/22 10:36:29;;;;;;;0.00;0.00;;;22.70;99.90;;;;;;5040874;28;20056;-86
2021/08/22 10:39:27;;;;;;;0.00;0.00;;;22.70;99.90;;;;;;5039837;28;20630;-80
2021/08/22 10:42:17;;;;;;;0.00;0.00;;;23.10;99.90;;;;;;5048278;28;20053;-86
2021/08/22 10:45:05;;;;;;;0.00;0.00;;;22.90;99.90;;;;;;5052418;28;20127;-85
2021/08/22 10:47:52;;;;;;;0.00;0.00;;;22.90;99.90;;;;;;5048101;28;20048;-84
2021/08/22 10:51:12;;;;;;;0.00;0.00;;;23.20;99.90;;;;;;5047922;28;20258;-83
2021/08/22 10:54:18;;;;;;;0.00;0.00;;;23.30;99.90;;;;;;5054238;28;20037;-85
2021/08/22 10:57:05;;;;;;;0.00;0.00;;;23.30;99.90;;;;;;5053823;28;20048;-85
2021/08/22 11:00:16;;;;;;;0.00;0.00;;;23.50;99.90;;;;;;5050673;28;20040;-86
2021/08/22 11:03:04;;;;;;;0.00;0.00;;;23.60;99.90;;;;;;5046263;28;20036;-85
2021/08/22 11:05:51;;;;;;;0.00;0.00;;;23.80;99.90;;;;;;5045539;28;20044;-82
2021/08/22 11:08:40;;;;;;;0.00;0.00;;;23.90;99.90;;;;;;5050588;28;20496;-86
2021/08/22 11:11:27;;;;;;;0.00;0.00;;;24.40;99.90;;;;;;5049057;28;20120;-83
2021/08/22 11:14:14;;;;;;;0.00;0.00;;;23.60;99.90;;;;;;5042830;28;20182;-80
2021/08/22 11:17:01;;;;;;;0.00;0.00;;;23.50;99.90;;;;;;5047979;28;20093;-84
2021/08/22 11:19:49;;;;;;;0.00;0.00;;;23.40;99.90;;;;;;5049056;28;20186;-82
2021/08/22 11:22:36;;;;;;;0.00;0.00;;;23.30;99.90;;;;;;5043888;28;20126;-83
2021/08/22 11:25:28;;;;;;;0.00;0.00;;;23.30;99.90;;;;;;5042029;28;20771;-84
2021/08/22 11:28:17;;;;;;;0.00;0.00;;;23.60;99.90;;;;;;5048618;28;20116;-84
2021/08/22 11:31:10;;;;;;;0.00;0.00;;;23.80;99.90;;;;;;5052194;28;20124;-85
2021/08/22 11:34:10;;;;;;;0.00;0.00;;;24.00;99.90;;;;;;5043557;28;20699;-84
2021/08/22 11:37:12;;;;;;;0.00;0.00;;;24.30;99.90;;;;;;5049337;28;20507;-79
2021/08/22 11:40:04;;;;;;;0.00;0.00;;;24.20;99.90;;;;;;5062673;28;20115;-81
2021/08/22 11:42:55;;;;;;;0.00;0.00;;;24.20;99.90;;;;;;5051943;28;20055;-82
2021/08/22 11:45:44;;;;;;;0.00;0.00;;;24.20;99.90;;;;;;5052885;28;20135;-85
2021/08/22 11:48:31;;;;;;;0.00;0.00;;;24.20;99.90;;;;;;5047980;28;20055;-84
2021/08/22 11:51:18;;;;;;;0.00;0.00;;;24.30;99.90;;;;;;5050458;28;20033;-80
2021/08/22 11:54:05;;;;;;;0.00;0.00;;;24.60;99.90;;;;;;5056711;28;20040;-83
2021/08/22 11:57:18;;;;;;;0.00;0.00;;;24.60;99.90;;;;;;5051467;28;20124;-83
2021/08/22 12:00:07;;;;;;;0.00;0.00;;;24.50;99.90;;;;;;5050709;28;20134;-84
2021/08/22 12:02:55;;;;;;;;;;;24.50;99.90;;;;;;5048022;28;20123;-85
2021/08/22 12:05:54;;;;;;;0.00;0.00;;;24.80;99.90;;;;;;5051974;28;19920;-84
2021/08/22 12:08:47;;;;;;;0.00;0.00;;;24.70;99.90;;;;;;5067769;28;20057;-86
2021/08/22 12:11:34;;;;;;;0.00;0.00;;;24.80;99.90;;;;;;5055658;28;20048;-86
2021/08/22 12:14:30;;;;;;;0.00;0.00;;;24.60;99.90;;;;;;5043384;28;20049;-85
2021/08/22 12:17:23;;;;;;;0.00;0.00;;;24.60;99.90;;;;;;5047935;28;20040;-86
2021/08/22 12:20:21;;;;;;;0.00;0.00;;;24.60;99.90;;;;;;5042658;28;20126;-84
2021/08/22 12:23:10;;;;;;;0.00;0.00;;;24.60;99.90;;;;;;5055548;28;20054;-84
2021/08/22 12:26:22;;;;;;;0.00;0.00;;;24.90;99.90;;;;;;5051744;28;20119;-85
2021/08/22 12:29:09;;;;;;;0.00;0.00;;;25.20;99.90;;;;;;5044663;28;20037;-85
2021/08/22 12:32:08;;;;;;;0.00;0.00;;;25.10;99.90;;;;;;5045239;28;20036;-82
2021/08/22 12:35:01;;;;;;;0.00;0.00;;;25.00;99.90;;;;;;5042891;28;20044;-83
2021/08/22 12:37:48;;;;;;;0.00;0.00;;;24.60;99.90;;;;;;5044483;28;20052;-81
2021/08/22 12:40:37;;;;;;;0.00;0.00;;;24.00;99.90;;;;;;5044018;28;20174;-82
2021/08/22 12:43:24;;;;;;;0.00;0.00;;;23.70;99.90;;;;;;5059776;28;20090;-85
2021/08/22 12:46:11;;;;;;;0.00;0.00;;;23.30;99.90;;;;;;5054887;28;20518;-82
2021/08/22 12:49:00;;;;;;;0.00;0.00;;;23.30;99.90;;;;;;5038387;28;20037;-86
2021/08/22 12:51:49;;;;;;;0.00;0.00;;;23.50;99.90;;;;;;5042230;28;20047;-85
2021/08/22 12:54:37;;;;;;;0.00;0.00;;;23.50;99.90;;;;;;5043691;28;20053;-85
2021/08/22 12:57:25;;;;;;;0.00;0.00;;;23.70;99.90;;;;;;5046886;28;20485;-85
2021/08/22 13:00:13;;;;;;;0.00;0.00;;;23.80;99.90;;;;;;5039268;28;20041;-82
2021/08/22 13:03:00;;;;;;;0.00;0.00;;;24.00;99.90;;;;;;5055674;28;20048;-81
2021/08/22 13:05:49;;;;;;;0.00;0.00;;;24.10;99.90;;;;;;5065177;28;20123;-86
2021/08/22 13:08:36;;;;;;;0.00;0.00;;;24.10;98.30;;;;;;5059184;28;20421;-86
2021/08/22 13:11:24;;;;;;;0.00;0.00;;;24.10;99.90;;;;;;5068019;28;20047;-82
2021/08/22 13:14:11;;;;;;;0.00;0.00;;;24.00;99.20;;;;;;5052542;28;20048;-85
2021/08/22 13:16:58;;;;;;;0.00;0.00;;;24.00;97.80;;;;;;5054570;28;20537;-85
2021/08/22 13:19:45;;;;;;;0.00;0.00;;;24.00;99.60;;;;;;5053797;28;20058;-85
2021/08/22 13:22:34;;;;;;;0.00;0.00;;;24.10;98.40;;;;;;5053641;28;20041;-83
2021/08/22 13:25:21;;;;;;;0.00;0.00;;;;;;;;;;5052395;28;20127;-86
2021/08/22 13:28:08;;;;;;;0.00;0.00;;;24.10;99.40;;;;;;5050426;28;20131;-84
2021/08/22 13:30:55;;;;;;;0.00;0.00;;;24.30;99.90;;;;;;5060457;28;20070;-81
2021/08/22 13:33:42;;;;;;;0.00;0.00;;;24.40;99.70;;;;;;5045925;28;20053;-86
2021/08/22 13:36:30;;;;;;;0.00;0.00;;;24.40;99.70;;;;;;5046711;28;20182;-80
2021/08/22 13:39:18;;;;;;;0.00;0.00;;;24.40;99.90;;;;;;5039994;28;20045;-82
2021/08/22 13:42:05;;;;;;;0.00;0.00;;;24.40;99.90;;;;;;5041060;28;20124;-83
2021/08/22 13:44:52;;;;;;;0.00;0.00;;;24.30;99.90;;;;;;5039907;28;20053;-84
2021/08/22 13:47:40;;;;;;;0.00;0.00;;;24.30;99.60;;;;;;5048058;28;20129;-85
2021/08/22 13:50:27;;;;;;;0.00;0.00;;;24.20;99.90;;;;;;5050335;28;20043;-82
2021/08/22 13:53:14;;;;;;;0.00;0.00;;;24.10;99.90;;;;;;5048333;28;20139;-84
2021/08/22 13:56:03;;;;;;;0.00;0.00;;;24.20;99.90;;;;;;5047257;28;20052;-83
2021/08/22 13:58:50;;;;;;;0.00;0.00;;;24.30;99.90;;;;;;5055475;28;20090;-83
2021/08/22 14:01:38;;;;;;;0.00;0.00;;;24.60;99.90;;;;;;5042633;28;20140;-83
2021/08/22 14:04:26;;;;;;;0.00;0.00;;;24.80;99.90;;;;;;5056689;28;20384;-80
2021/08/22 14:07:13;;;;;;;0.00;0.00;;;25.00;99.80;;;;;;5050684;28;20040;-84
2021/08/22 14:10:00;;;;;;;0.00;0.00;;;25.10;99.90;;;;;;5045544;28;20128;-84
2021/08/22 14:12:58;;;;;;;0.00;0.00;;;25.30;98.40;;;;;;5042386;28;20120;-88
2021/08/22 14:15:46;;;;;;;0.00;0.00;;;25.40;98.90;;;;;;5046584;28;20107;-86
2021/08/22 14:19:26;;;;;;;0.00;0.00;;;26.30;99.10;;;;;;5048486;28;20053;-85
2021/08/22 14:22:28;;;;;;;0.00;0.00;;;26.00;97.20;;;;;;4975278;28;20069;-84
2021/08/22 14:25:17;;;;;;;0.00;0.00;;;27.60;98.80;;;;;;4948882;28;20055;-85
2021/08/22 14:28:05;;;;;;;0.00;0.00;;;26.30;97.90;;;;;;4951347;28;20177;-82
2021/08/22 14:30:52;;;;;;;0.00;0.00;;;26.20;98.20;;;;;;4949187;28;20047;-84
2021/08/22 14:33:44;;;;;;;0.00;0.00;;;25.70;98.30;;;;;;4966871;28;20653;-86
2021/08/22 14:36:34;;;;;;;0.00;0.00;;;25.60;98.40;;;;;;4944287;28;20046;-84
2021/08/22 14:39:21;;;;;;;0.00;0.00;;;25.50;98.70;;;;;;4977411;28;20200;-83
2021/08/22 14:42:08;;;;;;;0.00;0.00;;;25.50;98.60;;;;;;4951222;28;20487;-86
2021/08/22 14:44:57;;;;;;;0.00;0.00;;;25.60;98.60;;;;;;4953288;28;20251;-84
2021/08/22 14:47:50;;;;;;;0.00;0.00;;;25.70;97.40;;;;;;4956185;28;20051;-84
2021/08/22 14:50:38;;;;;;;0.00;0.00;;;26.30;98.40;;;;;;4975347;28;20145;-86
2021/08/22 14:53:25;;;;;;;0.00;0.00;;;26.30;99.50;;;;;;4961657;28;20101;-80